Laguna Carapa, Brazil
Current Conditions -  °F | °C
As of 11:00 AM on Saturday 22 Nov 2014 (Local Time) from SBCG Reporting Station
Moderate Rain Moderate Rain  
Wind Chill: 66°   Ceiling: 500
Heat Index: 66°   Visibility: 3mi
Dew Point: 64°   Wind: 10mph
Humidity: 94%   Direction: 180°S
Pressure: 30"   Gusts: NA
Location:  22.55°S, 55.15°W
Report Text: SBCG 221400Z 18009KT 5000 RA BKN005 FEW040TCU 19/18 Q1016
Loading
Personal Weather Stations






























Interactive Weather Map New forecast layout! Learn more

10-Day Weather Forecast

Advertisements
Track Severe Weather on mobile